createdAt,value
2022-12-08T00:00:18.520Z,4.20
2022-12-08T00:06:05.811Z,5.10
2022-12-08T00:11:12.437Z,4.40
2022-12-08T00:16:13.910Z,5.20
2022-12-08T00:21:15.424Z,5.60
2022-12-08T00:26:16.468Z,4.70
2022-12-08T00:36:19.256Z,3.90
2022-12-08T00:46:42.888Z,4.80
2022-12-08T01:01:47.123Z,5.00
2022-12-08T01:06:49.150Z,5.20
2022-12-08T01:11:50.529Z,5.70
2022-12-08T01:16:51.869Z,6.10
2022-12-08T01:21:53.272Z,4.50
2022-12-08T01:31:55.338Z,4.60
2022-12-08T01:46:58.597Z,4.80
2022-12-08T01:57:14.484Z,5.30
2022-12-08T02:02:15.614Z,2.60
2022-12-08T02:07:17.645Z,4.50
2022-12-08T02:12:18.676Z,5.20
2022-12-08T02:23:03.813Z,4.10
2022-12-08T02:28:26.991Z,5.70
2022-12-08T02:33:46.807Z,7.10
2022-12-08T02:39:10.115Z,5.70
2022-12-08T02:44:26.887Z,5.50
2022-12-08T02:49:32.798Z,6.70
2022-12-08T02:54:35.437Z,3.60
2022-12-08T02:59:55.426Z,6.10
2022-12-08T03:05:42.106Z,6.70
2022-12-08T03:10:54.129Z,7.00
2022-12-08T03:15:56.044Z,10.00
2022-12-08T03:20:59.187Z,6.40
2022-12-08T03:26:24.204Z,7.10
2022-12-08T03:31:30.796Z,5.30
2022-12-08T03:36:32.071Z,5.70
2022-12-08T03:41:33.117Z,4.50
2022-12-08T03:51:35.736Z,4.80
2022-12-08T03:56:38.087Z,5.80
2022-12-08T04:01:39.475Z,6.20
2022-12-08T04:06:40.727Z,6.50
2022-12-08T04:11:41.772Z,6.00
2022-12-08T04:21:43.772Z,7.20
2022-12-08T04:31:46.413Z,10.30
2022-12-08T04:36:47.560Z,8.10
2022-12-08T04:46:49.621Z,12.00
2022-12-08T04:51:50.802Z,10.70
2022-12-08T05:01:53.188Z,9.00
2022-12-08T05:06:55.464Z,8.70
2022-12-08T05:16:57.484Z,6.20
2022-12-08T05:26:59.456Z,5.90
2022-12-08T05:37:01.697Z,6.40
2022-12-08T05:47:04.380Z,6.40
2022-12-08T05:52:05.743Z,7.00
2022-12-08T05:57:08.065Z,5.70
2022-12-08T06:02:09.454Z,4.70
2022-12-08T06:07:15.844Z,4.60
2022-12-08T06:12:17.211Z,6.70
2022-12-08T06:22:19.162Z,3.60
2022-12-08T06:27:20.138Z,4.60
2022-12-08T06:32:27.134Z,3.50
2022-12-08T06:37:28.547Z,3.60
2022-12-08T06:47:49.529Z,3.80
2022-12-08T06:58:06.072Z,4.20
2022-12-08T07:08:09.241Z,4.90
2022-12-08T07:13:10.349Z,6.10
2022-12-08T07:23:12.585Z,5.40
2022-12-08T07:28:13.996Z,4.30
2022-12-08T07:38:16.141Z,3.40
2022-12-08T07:53:19.946Z,1.70
2022-12-08T08:03:22.032Z,5.20
2022-12-08T08:18:25.388Z,3.10
2022-12-08T08:23:27.376Z,3.90
2022-12-08T08:28:28.988Z,4.60
2022-12-08T08:33:30.198Z,3.20
2022-12-08T08:38:31.236Z,3.80
2022-12-08T08:48:41.755Z,4.20
2022-12-08T08:53:43.277Z,3.90
2022-12-08T08:58:46.157Z,4.40
2022-12-08T09:03:48.364Z,3.40
2022-12-08T09:08:49.889Z,3.60
2022-12-08T09:13:52.474Z,4.70
2022-12-08T09:18:53.652Z,3.20
2022-12-08T09:23:57.049Z,4.20
2022-12-08T09:28:59.065Z,4.40
2022-12-08T09:34:00.288Z,4.70
2022-12-08T09:39:01.371Z,4.20
2022-12-08T09:49:04.782Z,4.30
2022-12-08T09:54:14.993Z,3.00
2022-12-08T09:59:21.975Z,5.60
2022-12-08T10:04:33.415Z,4.80
2022-12-08T10:09:49.089Z,4.70
2022-12-08T10:15:22.129Z,4.40
2022-12-08T10:20:26.120Z,4.50
2022-12-08T10:25:34.608Z,3.30
2022-12-08T10:30:35.850Z,4.20
2022-12-08T10:35:47.832Z,5.00
2022-12-08T10:41:03.932Z,5.50
2022-12-08T10:46:26.137Z,3.90
2022-12-08T10:51:37.367Z,5.00
2022-12-08T10:56:38.622Z,5.40
2022-12-08T11:01:41.681Z,4.90
2022-12-08T11:06:43.489Z,5.60
2022-12-08T11:11:46.628Z,4.10
2022-12-08T11:16:50.288Z,5.40
2022-12-08T11:21:51.492Z,5.50
2022-12-08T11:27:02.295Z,6.60
2022-12-08T11:32:12.372Z,5.60
2022-12-08T11:37:34.308Z,6.40
2022-12-08T11:42:52.752Z,5.80
2022-12-08T11:48:17.155Z,5.50
2022-12-08T11:53:43.614Z,6.40
2022-12-08T11:58:48.960Z,5.30
2022-12-08T12:04:08.971Z,5.90
2022-12-08T12:09:22.797Z,3.80
2022-12-08T12:15:02.412Z,4.60
2022-12-08T12:20:13.430Z,4.70
2022-12-08T12:30:24.087Z,5.20
2022-12-08T12:35:32.101Z,6.80
2022-12-08T12:40:40.934Z,7.40
2022-12-08T12:45:44.093Z,7.10
2022-12-08T12:50:50.416Z,9.90
2022-12-08T12:56:12.067Z,5.80
2022-12-08T13:01:19.230Z,7.60
2022-12-08T13:06:34.642Z,5.20
2022-12-08T13:11:48.390Z,7.60
2022-12-08T13:16:54.393Z,5.90
2022-12-08T13:21:55.701Z,10.80
2022-12-08T13:27:02.817Z,7.80
2022-12-08T13:33:16.876Z,11.80
2022-12-08T13:38:16.599Z,9.60
2022-12-08T13:43:24.073Z,9.80
2022-12-08T13:49:18.485Z,6.40
2022-12-08T13:59:44.097Z,7.50
2022-12-08T14:10:17.971Z,10.20
2022-12-08T14:15:19.373Z,11.10
2022-12-08T14:20:26.784Z,9.50
2022-12-08T14:25:28.918Z,12.50
2022-12-08T14:30:31.878Z,14.30
2022-12-08T14:35:36.205Z,8.60
2022-12-08T14:40:57.564Z,7.10
2022-12-08T14:46:01.598Z,8.70
2022-12-08T14:51:02.695Z,8.30
2022-12-08T15:01:23.838Z,9.60
2022-12-08T15:06:25.120Z,10.70
2022-12-08T15:11:31.500Z,7.90
2022-12-08T15:16:35.846Z,10.00
2022-12-08T15:21:38.208Z,10.90
2022-12-08T15:26:48.263Z,10.30
2022-12-08T15:31:51.722Z,12.30
2022-12-08T15:36:53.883Z,12.90
2022-12-08T15:41:54.890Z,11.00
2022-12-08T15:52:10.617Z,17.00
2022-12-08T16:03:22.395Z,11.70
2022-12-08T16:08:44.666Z,15.20
2022-12-08T16:14:04.253Z,14.90
2022-12-08T16:19:18.421Z,14.30
2022-12-08T16:24:19.517Z,15.50
2022-12-08T16:29:21.780Z,14.80
2022-12-08T16:34:22.754Z,11.70
2022-12-08T16:44:24.915Z,14.50
2022-12-08T16:49:25.944Z,15.30
2022-12-08T16:59:30.320Z,11.30
2022-12-08T17:04:32.370Z,10.20
2022-12-08T17:09:33.767Z,11.80
2022-12-08T17:19:37.006Z,12.10
2022-12-08T17:24:38.123Z,15.50
2022-12-08T17:29:39.619Z,15.90
2022-12-08T17:44:45.865Z,9.00
2022-12-08T17:49:46.901Z,12.40
2022-12-08T17:54:47.970Z,9.20
2022-12-08T18:04:50.023Z,8.90
2022-12-08T18:14:52.742Z,11.50
2022-12-08T18:24:54.871Z,10.90
2022-12-08T18:29:56.201Z,9.30
2022-12-08T18:34:57.271Z,12.90
2022-12-08T18:45:03.458Z,7.40
2022-12-08T18:50:08.359Z,9.00
2022-12-08T18:55:09.415Z,11.70
2022-12-08T19:00:14.285Z,9.40
2022-12-08T19:05:15.374Z,9.20
2022-12-08T19:20:19.288Z,12.30
2022-12-08T19:30:23.314Z,11.40
2022-12-08T19:35:24.391Z,7.80
2022-12-08T19:40:44.148Z,8.40
2022-12-08T19:45:45.201Z,9.90
2022-12-08T19:50:46.471Z,11.60
2022-12-08T20:00:48.511Z,11.00
2022-12-08T20:10:55.222Z,9.90
2022-12-08T20:15:56.998Z,8.10
2022-12-08T20:20:58.409Z,12.00
2022-12-08T20:26:04.168Z,10.40
2022-12-08T20:31:05.696Z,10.30
2022-12-08T20:36:07.553Z,10.30
2022-12-08T20:41:09.182Z,13.40
2022-12-08T20:46:13.183Z,8.70
2022-12-08T20:51:19.016Z,14.60
2022-12-08T20:56:22.701Z,12.60
2022-12-08T21:01:24.480Z,13.90
2022-12-08T21:06:29.013Z,12.60
2022-12-08T21:11:30.344Z,8.40
2022-12-08T21:16:31.853Z,12.20
2022-12-08T21:21:33.266Z,12.30
2022-12-08T21:26:34.849Z,14.70
2022-12-08T21:31:36.269Z,13.50
2022-12-08T21:36:37.873Z,13.10
2022-12-08T21:41:57.988Z,14.20
2022-12-08T21:46:59.331Z,11.20
2022-12-08T21:52:00.613Z,14.80
2022-12-08T21:57:01.774Z,14.90
2022-12-08T22:02:03.161Z,16.90
2022-12-08T22:07:08.813Z,15.60
2022-12-08T22:12:13.188Z,13.60
2022-12-08T22:17:14.456Z,16.20
2022-12-08T22:22:15.615Z,16.40
2022-12-08T22:32:17.758Z,13.70
2022-12-08T22:37:19.499Z,13.90
2022-12-08T22:42:20.558Z,12.90
2022-12-08T22:47:22.859Z,14.40
2022-12-08T22:52:24.177Z,15.10
2022-12-08T22:57:25.292Z,15.80
2022-12-08T23:07:28.092Z,12.60
2022-12-08T23:12:29.258Z,13.40
2022-12-08T23:22:32.790Z,14.10
2022-12-08T23:27:34.338Z,14.50
2022-12-08T23:32:36.055Z,14.80
2022-12-08T23:37:37.455Z,17.30
2022-12-08T23:42:38.553Z,17.40
2022-12-08T23:47:39.841Z,17.40
2022-12-08T23:52:41.060Z,15.50
2022-12-08T23:57:42.498Z,17.50
